This is the latest recevied weather packets stored in our database for station/object LRCT. If no packets are shown the sender has not sent any weather packets the latest 1 day(s).
| Time | Temp. | Humidity | Pressure | Rain* | Wind** | Luminosity | Snow |
|---|---|---|---|---|---|---|---|
| 1777997937 | 25° C | 18% | 1012 hPa | - | 3.58 m/s, 150° | - | - |
| 1777997037 | 25° C | 18% | 1012 hPa | - | 3.58 m/s, 150° | - | - |
| 1777996137 | 26.11° C | 20% | 1012 hPa | - | 4.47 m/s, 130° | - | - |
| 1777995237 | 26.11° C | 20% | 1012 hPa | - | 4.47 m/s, 130° | - | - |
| 1777994345 | 26.11° C | 20% | 1012 hPa | - | 4.47 m/s, 130° | - | - |
| 1777993437 | 26.11° C | 20% | 1012 hPa | - | 4.47 m/s, 130° | - | - |
| 1777992537 | 26.11° C | 23% | 1013 hPa | - | 3.13 m/s, 110° | - | - |
| 1777991637 | 26.11° C | 23% | 1013 hPa | - | 3.13 m/s, 110° | - | - |
| 1777990737 | 26.11° C | 23% | 1013 hPa | - | 3.13 m/s, 110° | - | - |
| 1777989836 | 26.11° C | 23% | 1013 hPa | - | 3.13 m/s, 110° | - | - |
| 1777988975 | 26.11° C | 21% | 1014 hPa | - | 2.68 m/s, 150° | - | - |
| 1777988037 | 26.11° C | 21% | 1014 hPa | - | 2.68 m/s, 150° | - | - |
| 1777987136 | 26.11° C | 21% | 1014 hPa | - | 2.68 m/s, 150° | - | - |
| 1777986237 | 26.11° C | 21% | 1014 hPa | - | 2.68 m/s, 150° | - | - |
| 1777970937 | 18.89° C | 43% | 1017 hPa | - | 1.34 m/s, 170° | - | - |
| 1777970037 | 18.89° C | 43% | 1017 hPa | - | 1.34 m/s, 170° | - | - |
| 1777969137 | 18.89° C | 43% | 1017 hPa | - | 1.34 m/s, 170° | - | - |
| 1777968242 | 18.89° C | 43% | 1017 hPa | - | 1.34 m/s, 170° | - | - |
| 1777960136 | 10° C | 67% | 1017 hPa | - | 0.89 m/s, 140° | - | - |
| 1777959237 | 10° C | 67% | 1017 hPa | - | 0.89 m/s, 140° | - | - |
| 1777958336 | 10° C | 67% | 1017 hPa | - | 0.89 m/s, 140° | - | - |
| 1777957437 | 10° C | 67% | 1017 hPa | - | 0.89 m/s, 140° | - | - |
* Rain since midnight (hover to see other rain measurements)
** Current wind speed in m/s (hover to see current wind gust speed)